Time;durP1;ratioP1;P1;durP2;ratioP2;P2;SDS_P1;SDS_P2;PMS_P1;PMS_P2;Temp;Humidity;BMP_temperature;BMP_pressure;BME280_temperature;BME280_humidity;BME280_pressure;Samples;Min_cycle;Max_cycle;Signal;HPM_P1;HPM_P2
2022/07/09 00:00:52;;;;;;;16.10;5.53;;;;;;;;;;5053623;28;20486;-77
2022/07/09 00:03:18;;;;;;;11.35;5.63;;;;;;;;;;5054558;28;20049;-77
2022/07/09 00:05:44;;;;;;;11.05;5.95;;;;;;;;;;5054346;28;20493;-77
2022/07/09 00:08:10;;;;;;;13.50;4.93;;;;;;;;;;5053403;28;20516;-77
2022/07/09 00:10:36;;;;;;;11.25;5.97;;;;;;;;;;5054327;28;20398;-77
2022/07/09 00:13:02;;;;;;;12.68;6.22;;;;;;;;;;5054899;28;20041;-77
2022/07/09 00:15:28;;;;;;;12.52;5.85;;;;;;;;;;5054882;28;20090;-77
2022/07/09 00:17:53;;;;;;;11.52;5.45;;;16.80;99.90;;;;;;5053738;28;20174;-77
2022/07/09 00:20:19;;;;;;;14.93;6.75;;;17.00;99.90;;;;;;5053587;28;20116;-76
2022/07/09 00:22:45;;;;;;;10.32;5.97;;;17.00;99.90;;;;;;5053847;28;20538;-77
2022/07/09 00:25:10;;;;;;;12.98;6.57;;;16.90;99.90;;;;;;5053736;28;20045;-77
2022/07/09 00:27:36;;;;;;;15.73;6.00;;;16.90;99.90;;;;;;5053579;28;20131;-77
2022/07/09 00:30:02;;;;;;;13.70;6.72;;;17.00;99.90;;;;;;5055068;28;20044;-77
2022/07/09 00:32:28;;;;;;;15.70;6.30;;;17.00;99.90;;;;;;5054050;28;20045;-77
2022/07/09 00:34:54;;;;;;;15.85;6.68;;;16.90;99.90;;;;;;5052917;28;20044;-77
2022/07/09 00:37:19;;;;;;;17.13;6.68;;;17.00;99.90;;;;;;5053882;28;20075;-77
2022/07/09 00:39:45;;;;;;;12.13;6.63;;;17.00;99.90;;;;;;5053466;28;20049;-76
2022/07/09 00:42:11;;;;;;;14.48;7.18;;;17.00;99.90;;;;;;5054255;28;20397;-77
2022/07/09 00:44:37;;;;;;;15.38;7.22;;;17.20;99.90;;;;;;5055221;28;20450;-75
2022/07/09 00:47:06;;;;;;;18.35;7.55;;;17.20;99.90;;;;;;5053148;28;20047;-76
2022/07/09 00:49:37;;;;;;;13.55;6.90;;;16.90;99.90;;;;;;5054222;28;20493;-77
2022/07/09 00:52:06;;;;;;;13.20;7.13;;;17.10;99.90;;;;;;5053117;28;20424;-76
2022/07/09 00:54:32;;;;;;;19.83;8.13;;;17.00;99.90;;;;;;5054958;28;20512;-76
2022/07/09 00:56:58;;;;;;;14.77;6.63;;;16.90;99.90;;;;;;5053731;28;20033;-76
2022/07/09 00:59:23;;;;;;;13.35;6.80;;;17.20;99.90;;;;;;5054799;28;20037;-76
2022/07/09 01:01:50;;;;;;;12.32;7.00;;;17.00;99.90;;;;;;5054564;28;20116;-76
2022/07/09 01:04:16;;;;;;;11.07;6.10;;;17.20;99.90;;;;;;5052360;28;20048;-77
2022/07/09 01:06:42;;;;;;;16.92;7.30;;;16.90;99.90;;;;;;5054486;28;20052;-77
2022/07/09 01:09:09;;;;;;;14.98;6.70;;;17.00;99.90;;;;;;5054557;28;20045;-76
2022/07/09 01:11:34;;;;;;;16.38;6.95;;;17.10;99.90;;;;;;5052257;28;20045;-77
2022/07/09 01:14:00;;;;;;;10.93;6.50;;;17.00;99.90;;;;;;5053938;28;20045;-76
2022/07/09 01:16:39;;;;;;;12.32;6.22;;;17.40;99.90;;;;;;5054139;28;20389;-77
2022/07/09 01:19:05;;;;;;;11.15;5.63;;;17.20;99.90;;;;;;5035944;28;20186;-77
2022/07/09 01:21:31;;;;;;;11.90;5.75;;;16.90;99.90;;;;;;5054341;28;20064;-77
2022/07/09 01:23:57;;;;;;;12.77;6.90;;;17.00;99.90;;;;;;5035152;28;20053;-77
2022/07/09 01:26:26;;;;;;;12.52;5.50;;;17.40;99.90;;;;;;5053201;28;20043;-77
2022/07/09 01:28:52;;;;;;;9.88;5.00;;;17.20;99.90;;;;;;5054035;28;20440;-77
2022/07/09 01:31:17;;;;;;;10.98;5.57;;;17.00;99.90;;;;;;5053495;28;20045;-77
2022/07/09 01:33:44;;;;;;;12.57;5.03;;;16.90;99.90;;;;;;5053858;28;20036;-76
2022/07/09 01:36:10;;;;;;;14.52;5.82;;;17.00;99.90;;;;;;5053748;28;20494;-75
2022/07/09 01:38:36;;;;;;;8.75;4.85;;;17.00;99.90;;;;;;5051900;28;20568;-77
2022/07/09 01:41:02;;;;;;;10.02;4.30;;;17.00;99.90;;;;;;5053639;28;20040;-77
2022/07/09 01:43:28;;;;;;;10.48;4.03;;;17.00;99.90;;;;;;5053925;28;20037;-75
2022/07/09 01:45:53;;;;;;;10.25;4.72;;;17.20;99.90;;;;;;5051508;28;20041;-76
2022/07/09 01:48:19;;;;;;;11.18;4.03;;;17.10;99.90;;;;;;5053755;28;20037;-75
2022/07/09 01:50:45;;;;;;;11.77;4.75;;;17.00;99.90;;;;;;5053685;28;20048;-76
2022/07/09 01:53:11;;;;;;;10.43;3.80;;;17.20;99.90;;;;;;5051362;28;20084;-76
2022/07/09 01:55:37;;;;;;;8.98;3.42;;;17.00;99.90;;;;;;5052571;28;20129;-76
2022/07/09 01:58:03;;;;;;;7.63;3.72;;;16.90;99.90;;;;;;5035313;28;20099;-76
2022/07/09 02:00:29;;;;;;;8.35;3.50;;;17.00;99.90;;;;;;5051807;28;20040;-76
2022/07/09 02:02:55;;;;;;;11.13;3.88;;;17.00;99.90;;;;;;5052931;28;20064;-76
2022/07/09 02:05:22;;;;;;;8.75;3.80;;;17.00;99.90;;;;;;5053663;28;20044;-76
2022/07/09 02:07:48;;;;;;;8.25;4.40;;;17.00;99.90;;;;;;5051364;28;20056;-77
2022/07/09 02:10:14;;;;;;;8.10;4.18;;;17.10;99.90;;;;;;5053307;28;20076;-77
2022/07/09 02:12:40;;;;;;;8.95;4.47;;;17.00;99.90;;;;;;5052204;28;20065;-77
2022/07/09 02:15:08;;;;;;;14.25;4.53;;;16.90;99.90;;;;;;5052357;28;20041;-77
2022/07/09 02:17:34;;;;;;;13.98;4.68;;;16.90;99.90;;;;;;5052074;28;20512;-77
2022/07/09 02:20:00;;;;;;;8.73;4.45;;;16.80;99.90;;;;;;5051845;28;20045;-76
2022/07/09 02:22:25;;;;;;;8.75;4.53;;;17.00;99.90;;;;;;5034211;28;20136;-76
2022/07/09 02:24:51;;;;;;;8.35;4.47;;;16.90;99.90;;;;;;5052704;28;20052;-77
2022/07/09 02:27:17;;;;;;;10.65;4.97;;;16.90;99.90;;;;;;5052108;28;20056;-76
2022/07/09 02:29:43;;;;;;;14.88;5.30;;;16.80;99.90;;;;;;5052815;28;20037;-77
2022/07/09 02:32:10;;;;;;;9.68;4.97;;;17.00;99.90;;;;;;5052622;28;20083;-77
2022/07/09 02:34:37;;;;;;;9.68;5.55;;;16.90;99.90;;;;;;5034319;28;20076;-77
2022/07/09 02:37:03;;;;;;;10.50;5.90;;;16.90;99.90;;;;;;5052149;28;20656;-76
2022/07/09 02:39:29;;;;;;;10.65;4.97;;;17.10;99.90;;;;;;5052987;28;20041;-76
2022/07/09 02:41:55;;;;;;;10.82;4.90;;;17.00;99.90;;;;;;5051531;28;20044;-77
2022/07/09 02:44:20;;;;;;;10.35;4.78;;;17.10;99.90;;;;;;5052839;28;20059;-77
2022/07/09 02:46:46;;;;;;;9.48;4.75;;;16.80;99.90;;;;;;5051171;28;20084;-77
2022/07/09 02:49:12;;;;;;;13.05;5.15;;;17.00;99.90;;;;;;5051812;28;20748;-77
2022/07/09 02:51:37;;;;;;;9.55;4.32;;;16.80;99.90;;;;;;5051322;28;20398;-77
2022/07/09 02:54:04;;;;;;;8.98;3.85;;;16.90;99.90;;;;;;5050944;28;20516;-77
2022/07/09 02:56:29;;;;;;;13.30;4.25;;;16.90;99.90;;;;;;5050587;28;20179;-77
2022/07/09 02:58:55;;;;;;;9.18;4.93;;;16.80;99.90;;;;;;5052139;28;20124;-77
2022/07/09 03:01:21;;;;;;;8.88;4.32;;;16.80;99.90;;;;;;5052397;28;20123;-77
2022/07/09 03:03:46;;;;;;;10.82;4.15;;;16.70;99.90;;;;;;5051472;28;20113;-77
2022/07/09 03:06:12;;;;;;;11.15;4.85;;;17.00;99.90;;;;;;5050936;28;20041;-77
2022/07/09 03:08:39;;;;;;;11.68;4.47;;;16.70;99.90;;;;;;5051169;28;20044;-77
2022/07/09 03:11:08;;;;;;;11.75;4.57;;;16.90;99.90;;;;;;5049839;28;20045;-77
2022/07/09 03:13:35;;;;;;;9.20;4.88;;;16.70;99.90;;;;;;5050829;28;20044;-77
2022/07/09 03:16:01;;;;;;;8.15;4.65;;;17.00;99.90;;;;;;5050099;28;20051;-77
2022/07/09 03:18:27;;;;;;;10.90;4.72;;;16.80;99.90;;;;;;5051115;28;20083;-77
2022/07/09 03:20:52;;;;;;;9.82;4.95;;;16.60;99.90;;;;;;5051985;28;20033;-76
2022/07/09 03:23:18;;;;;;;9.13;4.57;;;16.80;99.90;;;;;;5050563;28;20044;-77
2022/07/09 03:25:44;;;;;;;8.80;5.20;;;16.40;99.90;;;;;;5050754;28;20501;-76
2022/07/09 03:28:10;;;;;;;11.15;5.25;;;16.80;99.90;;;;;;5050763;28;20098;-77
2022/07/09 03:30:36;;;;;;;8.75;4.88;;;16.80;99.90;;;;;;5050387;28;20059;-76
2022/07/09 03:33:01;;;;;;;10.68;4.88;;;16.80;99.90;;;;;;5051574;28;20541;-77
2022/07/09 03:35:27;;;;;;;12.27;4.75;;;16.50;99.90;;;;;;5057280;28;20079;-77
2022/07/09 03:37:53;;;;;;;9.55;4.03;;;16.50;99.90;;;;;;5056199;28;20482;-77
2022/07/09 03:40:18;;;;;;;12.98;4.70;;;16.80;99.90;;;;;;5058663;28;20068;-77
2022/07/09 03:42:44;;;;;;;8.48;4.70;;;17.00;99.90;;;;;;5057270;28;20120;-77
2022/07/09 03:45:10;;;;;;;9.68;5.10;;;16.50;99.90;;;;;;5056731;28;20044;-77
2022/07/09 03:47:36;;;;;;;11.10;5.07;;;16.80;99.90;;;;;;5040647;28;20076;-76
2022/07/09 03:50:02;;;;;;;10.50;4.85;;;16.90;99.90;;;;;;5056840;28;20037;-77
2022/07/09 03:52:28;;;;;;;8.40;4.22;;;16.70;99.90;;;;;;5058142;28;20385;-77
2022/07/09 03:54:54;;;;;;;8.82;4.18;;;16.70;99.90;;;;;;5056827;28;20120;-76
2022/07/09 03:57:19;;;;;;;10.13;4.18;;;16.80;99.90;;;;;;5057357;28;20036;-76
2022/07/09 03:59:45;;;;;;;11.10;4.88;;;17.00;99.90;;;;;;5057391;28;20056;-77
2022/07/09 04:02:11;;;;;;;10.27;4.47;;;16.90;99.90;;;;;;5056916;28;20064;-77
2022/07/09 04:04:37;;;;;;;12.63;5.45;;;16.70;99.90;;;;;;5058798;28;20041;-76
2022/07/09 04:07:03;;;;;;;9.88;4.30;;;16.60;99.90;;;;;;5057325;28;20040;-76
2022/07/09 04:09:28;;;;;;;9.10;4.60;;;16.80;99.90;;;;;;5058542;28;20041;-76
2022/07/09 04:11:54;;;;;;;11.95;5.25;;;16.70;99.90;;;;;;5057984;28;20036;-76
2022/07/09 04:14:20;;;;;;;11.43;5.20;;;16.60;99.90;;;;;;5057369;28;20455;-76
2022/07/09 04:16:46;;;;;;;11.90;5.10;;;16.60;99.90;;;;;;5057996;28;20084;-76
2022/07/09 04:19:12;;;;;;;9.95;4.70;;;17.30;99.90;;;;;;5056875;28;20044;-76
2022/07/09 04:21:38;;;;;;;9.68;4.65;;;16.50;99.90;;;;;;5056154;28;20055;-76
2022/07/09 04:24:04;;;;;;;14.30;5.78;;;16.50;99.90;;;;;;5056585;28;20409;-76
2022/07/09 04:26:29;;;;;;;15.13;5.68;;;16.60;99.90;;;;;;5057480;28;20394;-76
2022/07/09 04:28:55;;;;;;;8.63;4.88;;;16.70;99.90;;;;;;5056446;28;20047;-76
2022/07/09 04:31:21;;;;;;;10.57;4.75;;;16.80;99.90;;;;;;5058483;28;20424;-77
2022/07/09 04:33:47;;;;;;;12.45;5.30;;;16.60;99.90;;;;;;5056133;28;20063;-77
2022/07/09 04:36:13;;;;;;;7.40;4.07;;;16.70;99.90;;;;;;5056726;28;20052;-77
2022/07/09 04:38:39;;;;;;;10.70;4.55;;;16.90;99.90;;;;;;5058429;28;20082;-76
2022/07/09 04:41:05;;;;;;;10.35;5.07;;;16.80;99.90;;;;;;5056985;28;20448;-76
2022/07/09 04:43:31;;;;;;;11.82;5.40;;;16.70;99.90;;;;;;5058094;28;20057;-76
2022/07/09 04:45:57;;;;;;;11.40;4.50;;;17.20;99.90;;;;;;5053544;28;20045;-76
2022/07/09 04:48:22;;;;;;;10.38;4.18;;;16.80;99.90;;;;;;5053152;28;20063;-76
2022/07/09 04:50:48;;;;;;;9.05;4.28;;;16.70;99.90;;;;;;5054694;28;20037;-76
2022/07/09 04:53:14;;;;;;;10.50;4.65;;;17.00;99.90;;;;;;5054553;28;20048;-77
2022/07/09 04:55:40;;;;;;;8.00;4.20;;;16.90;99.90;;;;;;5054091;28;20108;-77
2022/07/09 04:58:05;;;;;;;9.90;3.97;;;17.00;99.90;;;;;;5053455;28;20478;-77
2022/07/09 05:00:33;;;;;;;8.40;5.00;;;17.00;99.90;;;;;;5053670;28;20498;-77
2022/07/09 05:02:59;;;;;;;9.52;5.07;;;16.90;99.90;;;;;;5052362;28;20053;-77
2022/07/09 05:05:25;;;;;;;12.80;4.82;;;17.20;99.90;;;;;;5054662;28;20122;-76
2022/07/09 05:07:52;;;;;;;10.68;4.70;;;17.10;99.90;;;;;;5053343;28;20053;-76
2022/07/09 05:10:18;;;;;;;8.68;3.60;;;17.20;99.90;;;;;;5053625;28;20044;-76
2022/07/09 05:12:44;;;;;;;9.98;3.63;;;;;;;;;;5052803;28;20060;-77
2022/07/09 05:15:10;;;;;;;8.70;3.55;;;17.20;99.90;;;;;;5053094;28;20047;-76
2022/07/09 05:17:37;;;;;;;9.77;3.80;;;17.30;99.90;;;;;;5053862;28;20075;-77
2022/07/09 05:20:04;;;;;;;10.20;4.10;;;17.40;99.90;;;;;;5053920;28;20041;-77
2022/07/09 05:22:35;;;;;;;8.00;3.80;;;17.40;99.90;;;;;;5054269;28;20061;-76
2022/07/09 05:25:01;;;;;;;6.22;3.53;;;17.20;99.90;;;;;;5051971;28;20039;-76
2022/07/09 05:27:28;;;;;;;11.85;4.32;;;17.30;99.90;;;;;;5036413;28;20043;-76
2022/07/09 05:29:54;;;;;;;7.63;3.88;;;17.30;99.90;;;;;;5035304;28;20044;-76
2022/07/09 05:32:20;;;;;;;9.35;2.78;;;17.60;99.90;;;;;;5054503;28;20037;-77
2022/07/09 05:34:45;;;;;;;8.70;3.40;;;17.40;99.90;;;;;;5053826;28;20052;-76
2022/07/09 05:37:11;;;;;;;9.50;3.47;;;17.60;99.90;;;;;;5053113;28;20119;-74
2022/07/09 05:39:37;;;;;;;7.03;3.13;;;17.40;99.90;;;;;;5057165;28;20052;-74
2022/07/09 05:42:03;;;;;;;8.55;2.92;;;;;;;;;;5071203;28;20041;-76
2022/07/09 05:44:29;;;;;;;7.65;3.10;;;;;;;;;;5067271;28;20063;-75
2022/07/09 05:46:55;;;;;;;7.63;3.42;;;;;;;;;;5063779;28;20045;-75
2022/07/09 05:49:21;;;;;;;7.05;3.17;;;;;;;;;;5063342;28;20040;-76
2022/07/09 05:51:47;;;;;;;7.82;3.33;;;;;;;;;;5060940;28;20494;-77
2022/07/09 05:54:19;;;;;;;6.90;3.15;;;;;;;;;;5057216;28;20063;-76
2022/07/09 05:56:46;;;;;;;7.32;2.65;;;;;;;;;;5060451;28;20053;-76
2022/07/09 05:59:12;;;;;;;7.75;3.50;;;;;;;;;;5058520;28;20039;-76
2022/07/09 06:01:42;;;;;;;6.88;3.00;;;;;;;;;;5060068;28;20041;-75
2022/07/09 06:04:08;;;;;;;8.10;2.90;;;;;;;;;;5063179;28;20048;-76
2022/07/09 06:06:34;;;;;;;6.53;2.45;;;;;;;;;;5059836;28;20040;-76
2022/07/09 06:09:01;;;;;;;9.57;2.78;;;;;;;;;;5056573;28;20587;-75
2022/07/09 06:11:27;;;;;;;8.25;2.90;;;;;;;;;;5072378;28;20397;-77
2022/07/09 06:13:53;;;;;;;6.00;2.72;;;;;;;;;;5071844;28;20131;-76
2022/07/09 06:16:20;;;;;;;8.65;3.22;;;;;;;;;;5072008;28;20556;-77
2022/07/09 06:18:46;;;;;;;6.15;2.40;;;;;;;;;;5072989;28;20044;-77
2022/07/09 06:21:12;;;;;;;7.38;2.92;;;;;;;;;;5070684;28;20090;-77
2022/07/09 06:23:38;;;;;;;9.75;2.83;;;;;;;;;;5063390;28;20053;-77
2022/07/09 06:26:04;;;;;;;7.93;3.05;;;;;;;;;;5049381;28;20041;-75
2022/07/09 06:28:30;;;;;;;5.93;2.17;;;;;;;;;;5050526;28;20037;-76
2022/07/09 06:30:56;;;;;;;5.95;2.45;;;;;;;;;;5032208;28;20483;-74
2022/07/09 06:33:23;;;;;;;5.72;2.42;;;;;;;;;;5049564;28;20048;-75
2022/07/09 06:35:49;;;;;;;9.55;2.30;;;;;;;;;;5048425;28;20045;-71
2022/07/09 06:38:15;;;;;;;7.43;2.63;;;;;;;;;;5050585;28;20040;-71
2022/07/09 06:40:41;;;;;;;6.97;2.42;;;;;;;;;;5066206;28;20045;-72
2022/07/09 06:43:09;;;;;;;7.05;2.70;;;;;;;;;;5069613;28;20101;-72
2022/07/09 06:45:35;;;;;;;5.43;2.13;;;;;;;;;;5067249;28;20044;-76
2022/07/09 06:48:01;;;;;;;5.63;2.28;;;;;;;;;;5037947;28;20456;-76
2022/07/09 06:50:27;;;;;;;10.50;2.78;;;;;;;;;;5050092;28;20040;-77
2022/07/09 06:52:56;;;;;;;5.65;2.20;;;;;;;;;;5047993;28;20044;-75
2022/07/09 06:55:23;;;;;;;9.60;2.10;;;;;;;;;;5047969;28;20490;-74
2022/07/09 06:57:49;;;;;;;6.75;2.00;;;;;;;;;;5048239;28;20123;-76
2022/07/09 07:00:15;;;;;;;13.52;3.10;;;;;;;;;;5049332;28;20076;-73
2022/07/09 07:02:41;;;;;;;5.95;2.88;;;;;;;;;;5049571;28;20045;-74
2022/07/09 07:05:07;;;;;;;8.32;2.80;;;;;;;;;;5056988;28;20112;-74
2022/07/09 07:07:33;;;;;;;7.70;2.38;;;;;;;;;;5051935;28;20053;-74
2022/07/09 07:09:59;;;;;;;11.85;3.15;;;;;;;;;;5046315;28;20055;-74
2022/07/09 07:12:25;;;;;;;7.22;3.22;;;;;;;;;;5050680;28;20072;-70
2022/07/09 07:14:51;;;;;;;6.07;2.55;;;;;;;;;;5031213;28;20049;-72
2022/07/09 07:17:18;;;;;;;13.23;3.28;;;;;;;;;;5054536;28;20036;-72
2022/07/09 07:19:44;;;;;;;9.40;2.45;;;;;;;;;;5059286;28;20099;-75
2022/07/09 07:22:10;;;;;;;6.05;2.08;;;;;;;;;;5048411;28;20059;-76
2022/07/09 07:24:36;;;;;;;10.70;3.10;;;;;;;;;;5064657;28;20044;-77
2022/07/09 07:27:02;;;;;;;10.32;3.33;;;;;;;;;;5069723;28;20078;-75
2022/07/09 07:29:28;;;;;;;12.80;2.53;;;;;;;;;;5053902;28;20056;-71
2022/07/09 07:31:56;;;;;;;14.65;3.05;;;;;;;;;;5069695;28;20040;-71
2022/07/09 07:34:24;;;;;;;7.65;2.95;;;;;;;;;;5059963;28;20493;-73
2022/07/09 07:36:51;;;;;;;9.25;2.53;;;;;;;;;;5038136;28;20040;-71
2022/07/09 07:39:17;;;;;;;7.30;2.20;;;;;;;;;;5063059;28;20048;-70
2022/07/09 07:41:44;;;;;;;8.50;2.38;;;;;;;;;;5059070;28;20033;-71
2022/07/09 07:44:09;;;;;;;14.13;3.15;;;18.70;99.90;;;;;;5064947;28;20123;-72
2022/07/09 07:46:35;;;;;;;8.27;2.33;;;;;;;;;;5070066;28;20115;-70
2022/07/09 07:49:01;;;;;;;9.45;2.30;;;19.00;99.90;;;;;;5066435;28;20044;-74
2022/07/09 07:51:27;;;;;;;4.80;2.08;;;;;;;;;;5063116;28;20045;-76
2022/07/09 07:53:53;;;;;;;5.72;2.10;;;;;;;;;;5066300;28;20048;-75
2022/07/09 07:56:19;;;;;;;6.80;2.30;;;19.00;99.90;;;;;;5056072;28;20124;-76
2022/07/09 07:58:44;;;;;;;8.57;2.45;;;18.80;99.90;;;;;;5060824;28;20119;-71
2022/07/09 08:01:10;;;;;;;10.90;2.30;;;18.80;99.90;;;;;;5065095;28;20040;-74
2022/07/09 08:03:35;;;;;;;8.93;2.75;;;18.90;99.90;;;;;;5060353;28;20133;-73
2022/07/09 08:06:01;;;;;;;7.70;2.25;;;18.80;99.90;;;;;;5059530;28;20540;-73
2022/07/09 08:08:27;;;;;;;10.30;3.30;;;;;;;;;;5054271;28;20128;-71
2022/07/09 08:10:54;;;;;;;6.38;2.22;;;;;;;;;;5047934;28;20179;-71
2022/07/09 08:13:20;;;;;;;9.52;2.50;;;;;;;;;;5051390;28;20040;-73
2022/07/09 08:15:46;;;;;;;8.38;2.90;;;;;;;;;;5058326;28;20045;-68
2022/07/09 08:18:13;;;;;;;7.57;2.72;;;;;;;;;;5062859;28;20465;-73
2022/07/09 08:20:40;;;;;;;8.05;2.35;;;;;;;;;;5047967;28;20033;-74
2022/07/09 08:23:06;;;;;;;6.07;2.33;;;;;;;;;;5057839;28;20092;-73
2022/07/09 08:25:32;;;;;;;7.97;2.05;;;19.30;99.90;;;;;;5051412;28;20106;-75
2022/07/09 08:27:58;;;;;;;9.70;2.13;;;19.50;99.90;;;;;;5069670;28;20037;-74
2022/07/09 08:30:24;;;;;;;6.13;1.75;;;19.50;99.90;;;;;;5070850;28;20032;-72
2022/07/09 08:32:49;;;;;;;8.15;2.63;;;19.50;99.90;;;;;;5065754;28;20140;-74
2022/07/09 08:35:15;;;;;;;8.55;2.03;;;19.70;99.90;;;;;;5063085;28;20455;-74
2022/07/09 08:37:40;;;;;;;4.28;1.65;;;19.70;99.90;;;;;;5073825;28;20052;-73
2022/07/09 08:40:07;;;;;;;7.55;2.25;;;19.20;99.90;;;;;;5072414;28;20047;-73
2022/07/09 08:42:33;;;;;;;6.38;2.10;;;19.70;99.90;;;;;;5075084;28;20081;-72
2022/07/09 08:45:01;;;;;;;6.43;1.92;;;18.90;99.90;;;;;;5071934;28;20041;-74
2022/07/09 08:47:27;;;;;;;10.48;2.80;;;19.20;99.90;;;;;;5057254;28;20040;-75
2022/07/09 08:49:56;;;;;;;10.45;2.60;;;18.90;99.90;;;;;;5074219;28;20051;-76
2022/07/09 08:52:23;;;;;;;10.20;2.40;;;18.80;99.90;;;;;;5072831;28;20090;-74
2022/07/09 08:54:50;;;;;;;10.38;2.63;;;19.00;99.90;;;;;;5054208;28;20056;-74
2022/07/09 08:57:15;;;;;;;5.80;2.42;;;19.10;99.90;;;;;;5069166;28;20069;-77
2022/07/09 08:59:41;;;;;;;8.27;1.98;;;19.20;99.90;;;;;;5053856;28;20513;-74
2022/07/09 09:02:12;;;;;;;9.75;2.40;;;19.20;99.90;;;;;;5059686;28;20458;-72
2022/07/09 09:04:40;;;;;;;8.27;2.47;;;19.20;99.90;;;;;;5055472;28;20033;-78
2022/07/09 09:07:17;;;;;;;7.70;2.38;;;19.00;99.90;;;;;;5072616;28;20040;-78
2022/07/09 09:09:44;;;;;;;8.55;2.47;;;19.10;99.90;;;;;;5070178;28;20047;-77
2022/07/09 09:12:10;;;;;;;7.07;2.35;;;19.30;99.90;;;;;;5041442;28;20028;-74
2022/07/09 09:14:36;;;;;;;8.43;2.28;;;19.70;99.90;;;;;;5069635;28;20040;-72
2022/07/09 09:17:11;;;;;;;7.20;1.95;;;19.20;99.90;;;;;;5053183;28;20041;-73
2022/07/09 09:19:38;;;;;;;10.63;2.92;;;19.20;99.90;;;;;;5054642;28;20043;-74
2022/07/09 09:22:04;;;;;;;9.32;2.75;;;19.10;99.90;;;;;;5055853;28;20053;-74
2022/07/09 09:24:30;;;;;;;7.97;2.63;;;;;;;;;;5043136;28;20040;-74
2022/07/09 09:26:59;;;;;;;8.82;2.70;;;19.20;99.90;;;;;;5060162;28;20048;-74
2022/07/09 09:29:26;;;;;;;6.65;2.10;;;19.20;99.90;;;;;;5054290;28;20049;-75
2022/07/09 09:31:52;;;;;;;9.43;2.42;;;19.10;99.90;;;;;;5063590;28;20090;-73
2022/07/09 09:34:19;;;;;;;10.20;2.38;;;19.80;99.90;;;;;;5053249;28;20037;-74
2022/07/09 09:36:47;;;;;;;7.13;2.75;;;19.60;99.90;;;;;;5056639;28;20090;-75
2022/07/09 09:39:15;;;;;;;8.73;2.80;;;19.80;99.90;;;;;;5053825;28;20129;-69
2022/07/09 09:41:43;;;;;;;7.30;1.98;;;19.90;99.90;;;;;;5054243;28;20051;-77
2022/07/09 09:44:17;;;;;;;8.20;2.60;;;20.00;99.90;;;;;;5035560;28;20041;-74
2022/07/09 09:46:44;;;;;;;7.43;2.50;;;19.70;99.90;;;;;;5052932;28;20115;-77
2022/07/09 09:49:13;;;;;;;7.63;2.38;;;19.80;99.90;;;;;;5053466;28;20049;-79
2022/07/09 09:51:44;;;;;;;9.77;2.50;;;19.90;99.90;;;;;;5051949;28;20076;-74
2022/07/09 09:54:11;;;;;;;8.73;2.00;;;20.00;99.90;;;;;;5035071;28;20478;-75
2022/07/09 09:56:39;;;;;;;9.00;2.30;;;19.60;99.90;;;;;;5062773;28;20431;-71
2022/07/09 09:59:05;;;;;;;8.05;2.47;;;19.50;99.90;;;;;;5060649;28;20040;-73
2022/07/09 10:01:30;;;;;;;7.80;3.08;;;19.30;99.90;;;;;;5058664;28;20622;-73
2022/07/09 10:03:57;;;;;;;9.82;3.13;;;19.00;99.90;;;;;;5058178;28;20048;-73
2022/07/09 10:06:25;;;;;;;8.13;3.05;;;19.20;99.90;;;;;;5053625;28;20063;-71
2022/07/09 10:08:51;;;;;;;10.63;3.28;;;19.10;99.90;;;;;;5060836;28;20512;-73
2022/07/09 10:11:16;;;;;;;6.40;2.30;;;19.10;99.90;;;;;;5056846;28;20068;-70
2022/07/09 10:13:56;;;;;;;7.15;2.60;;;19.00;99.90;;;;;;5053520;28;20056;-72
2022/07/09 10:16:41;;;;;;;7.90;2.55;;;;;;;;;;5049572;28;20037;-76
2022/07/09 10:19:07;;;;;;;9.15;2.00;;;19.40;99.90;;;;;;5050241;28;20049;-77
2022/07/09 10:21:38;;;;;;;6.68;2.10;;;19.40;99.90;;;;;;5049041;28;20045;-71
2022/07/09 10:24:05;;;;;;;7.00;2.67;;;19.20;99.90;;;;;;5049202;28;20508;-70
2022/07/09 10:26:47;;;;;;;7.22;1.90;;;19.20;99.90;;;;;;5048951;28;20048;-73
2022/07/09 10:29:26;;;;;;;10.63;3.13;;;19.20;99.90;;;;;;5059137;28;20802;-73
2022/07/09 10:31:54;;;;;;;8.73;2.08;;;19.20;99.90;;;;;;5031754;28;20391;-72
2022/07/09 10:34:30;;;;;;;11.27;2.50;;;19.20;99.90;;;;;;5047837;28;20147;-72
2022/07/09 10:37:00;;;;;;;7.18;1.73;;;19.20;99.90;;;;;;5049270;28;20518;-73
2022/07/09 10:39:27;;;;;;;7.05;2.50;;;19.20;99.90;;;;;;5068621;28;20047;-72
2022/07/09 10:42:04;;;;;;;8.55;2.45;;;19.10;99.90;;;;;;5069292;28;20047;-71
2022/07/09 10:44:40;;;;;;;5.90;1.60;;;19.30;99.90;;;;;;5069559;28;20050;-73
2022/07/09 10:47:06;;;;;;;6.82;1.77;;;19.10;99.90;;;;;;5057478;28;20048;-74
2022/07/09 10:49:36;;;;;;;7.03;2.00;;;19.20;99.90;;;;;;5066467;28;20036;-72
2022/07/09 10:52:04;;;;;;;11.30;2.00;;;19.30;99.90;;;;;;5065348;28;20036;-74
2022/07/09 10:54:29;;;;;;;9.30;2.03;;;19.30;99.90;;;;;;5058008;28;20528;-76
2022/07/09 10:56:56;;;;;;;5.35;1.70;;;19.40;99.90;;;;;;5051385;28;20045;-75
2022/07/09 10:59:23;;;;;;;9.48;2.55;;;19.40;99.90;;;;;;5069850;28;20040;-76
2022/07/09 11:01:52;;;;;;;6.47;2.00;;;;;;;;;;5067400;28;20115;-75
2022/07/09 11:04:31;;;;;;;5.78;1.45;;;;;;;;;;5049832;28;20375;-69
2022/07/09 11:06:59;;;;;;;6.50;1.77;;;;;;;;;;5048990;28;20608;-70
2022/07/09 11:09:30;;;;;;;5.95;1.50;;;;;;;;;;5055178;28;20044;-69
2022/07/09 11:11:57;;;;;;;6.63;2.30;;;;;;;;;;5068834;28;20451;-69
2022/07/09 11:14:23;;;;;;;5.03;1.20;;;;;;;;;;5067548;28;20076;-71
2022/07/09 11:16:58;;;;;;;6.85;1.70;;;;;;;;;;5069288;28;20048;-72
2022/07/09 11:19:24;;;;;;;8.43;2.00;;;;;;;;;;5048314;28;20050;-75
2022/07/09 11:22:00;;;;;;;6.32;1.40;;;;;;;;;;5066774;28;20056;-70
2022/07/09 11:24:29;;;;;;;6.65;1.63;;;;;;;;;;5049982;28;20777;-72
2022/07/09 11:26:55;;;;;;;5.68;1.40;;;;;;;;;;5064100;28;20856;-73
2022/07/09 11:29:21;;;;;;;7.07;2.00;;;;;;;;;;5057105;28;20041;-72
2022/07/09 11:31:51;;;;;;;5.30;1.17;;;;;;;;;;5049965;28;20396;-74
2022/07/09 11:34:18;;;;;;;6.60;1.50;;;;;;;;;;5051027;28;20124;-74
2022/07/09 11:36:45;;;;;;;5.88;1.20;;;;;;;;;;5055316;28;20043;-73
2022/07/09 11:39:31;;;;;;;3.40;1.00;;;;;;;;;;5065710;28;20044;-75
2022/07/09 11:41:58;;;;;;;8.15;1.35;;;;;;;;;;5049850;28;20151;-72
2022/07/09 11:44:35;;;;;;;5.75;1.70;;;;;;;;;;5067621;28;20388;-72
2022/07/09 11:47:01;;;;;;;5.90;1.42;;;;;;;;;;5068626;28;20130;-71
2022/07/09 11:49:34;;;;;;;8.45;2.63;;;;;;;;;;5046276;28;20412;-73
2022/07/09 11:52:00;;;;;;;6.45;1.77;;;;;;;;;;5048170;28;20049;-72
2022/07/09 11:54:28;;;;;;;5.05;1.48;;;;;;;;;;5049602;28;20118;-71
2022/07/09 11:56:54;;;;;;;5.07;1.00;;;;;;;;;;5059041;28;20108;-69
2022/07/09 11:59:33;;;;;;;5.82;1.60;;;;;;;;;;5074807;28;20500;-71
2022/07/09 12:01:59;;;;;;;7.80;1.73;;;;;;;;;;5072334;28;20043;-72
2022/07/09 12:04:29;;;;;;;9.40;2.00;;;;;;;;;;5073651;28;20040;-74
2022/07/09 12:06:55;;;;;;;8.25;1.83;;;;;;;;;;5074396;28;20048;-73
2022/07/09 12:09:28;;;;;;;23.55;4.35;;;;;;;;;;5072482;28;20059;-73
2022/07/09 12:11:54;;;;;;;4.18;0.90;;;;;;;;;;5071319;28;20040;-74
2022/07/09 12:14:20;;;;;;;5.82;2.10;;;;;;;;;;5061188;28;20040;-72
2022/07/09 12:16:46;;;;;;;8.95;1.77;;;;;;;;;;5040418;28;20047;-77
2022/07/09 12:19:12;;;;;;;3.72;1.20;;;;;;;;;;5071681;28;20437;-79
2022/07/09 12:21:38;;;;;;;5.53;1.58;;;;;;;;;;5074100;28;20132;-77
2022/07/09 12:24:06;;;;;;;6.28;1.42;;;;;;;;;;5063600;28;20131;-79
2022/07/09 12:26:32;;;;;;;5.80;1.35;;;;;;;;;;5063631;28;20132;-75
2022/07/09 12:28:58;;;;;;;5.47;1.48;;;;;;;;;;5054667;28;20040;-74
2022/07/09 12:31:25;;;;;;;3.83;1.30;;;;;;;;;;5060160;28;20040;-73
2022/07/09 12:33:51;;;;;;;5.53;1.35;;;;;;;;;;5067049;28;20106;-75
2022/07/09 12:36:17;;;;;;;8.85;2.33;;;;;;;;;;5069936;28;20042;-79
2022/07/09 12:38:43;;;;;;;6.45;1.60;;;;;;;;;;5053573;28;20087;-75
2022/07/09 12:41:09;;;;;;;5.72;1.17;;;;;;;;;;5072443;28;20036;-79
2022/07/09 12:43:35;;;;;;;4.90;1.20;;;;;;;;;;5072747;28;20561;-79
2022/07/09 12:46:01;;;;;;;7.63;1.70;;;;;;;;;;5051803;28;20474;-82
2022/07/09 12:48:27;;;;;;;7.22;1.85;;;;;;;;;;5050832;28;20567;-75
2022/07/09 12:50:53;;;;;;;6.32;1.42;;;;;;;;;;5051701;28;20048;-75
2022/07/09 12:53:19;;;;;;;8.40;1.42;;;;;;;;;;5052591;28;20052;-77
2022/07/09 12:55:47;;;;;;;7.05;1.30;;;;;;;;;;5059966;28;20045;-77
2022/07/09 12:58:13;;;;;;;6.95;1.80;;;;;;;;;;5050665;28;20049;-78
2022/07/09 13:00:39;;;;;;;8.05;2.00;;;;;;;;;;5067306;28;20043;-77
2022/07/09 13:03:05;;;;;;;6.70;1.67;;;;;;;;;;5072788;28;20037;-75
2022/07/09 13:05:32;;;;;;;8.65;2.22;;;;;;;;;;5070800;28;20113;-80
2022/07/09 13:07:58;;;;;;;6.25;1.60;;;;;;;;;;5068516;28;20040;-77
2022/07/09 13:10:24;;;;;;;4.05;1.70;;;;;;;;;;5072133;28;20042;-77
2022/07/09 13:12:50;;;;;;;6.88;1.85;;;;;;;;;;5071594;28;20044;-77
2022/07/09 13:15:21;;;;;;;5.57;1.20;;;;;;;;;;5050517;28;20045;-76
2022/07/09 13:17:50;;;;;;;5.28;1.50;;;;;;;;;;5051984;28;20090;-74
2022/07/09 13:20:17;;;;;;;5.00;1.38;;;;;;;;;;5065657;28;20036;-73
2022/07/09 13:22:43;;;;;;;6.03;1.88;;;;;;;;;;5069313;28;20118;-77